Green Mountain Falls, Colorado
Current Conditions -  °F | °C
As of 1:58 PM on Friday 24 Oct 2014 (Local Time) from KAFF Reporting Station
Clear Clear  
Wind Chill: 77°   Ceiling: Unl
Heat Index: 77°   Visibility: 10mi
Dew Point: 14°   Wind: 10mph
Humidity: 9%   Direction: 140°SE
Pressure: 30.23"   Gusts: NA
Location:  38.93°N, 105.02°W
Report Text: KAFF 241958Z AUTO 14009KT 10SM CLR 25/M10 A3023 RMK AO2 SLP162 T02491099
Loading
Personal Weather Stations






























Interactive Weather Map
Tropical Storm Tracking
New forecast layout! Learn more

10-Day Weather Forecast

Advertisements
Track Severe Weather on mobile